createdAt,value
2018-05-12T09:43:07.467Z,100268.66
2018-05-12T09:45:33.381Z,100273.87
2018-05-12T09:47:59.001Z,100258.06
2018-05-12T09:50:25.170Z,100260.01
2018-05-12T09:52:50.793Z,100251.47
2018-05-12T09:55:16.363Z,100258.39
2018-05-12T09:57:42.158Z,100245.30
2018-05-12T10:00:07.836Z,100245.55
2018-05-12T10:02:33.452Z,100242.70
2018-05-12T10:04:59.339Z,100230.84
2018-05-12T10:07:24.927Z,100235.59
2018-05-12T10:09:50.511Z,100229.18
2018-05-12T10:12:16.318Z,100235.55
2018-05-12T10:14:42.145Z,100233.05
2018-05-12T10:17:07.796Z,100230.72
2018-05-12T10:19:33.618Z,100237.47
2018-05-12T10:21:59.179Z,100230.34
2018-05-12T10:24:24.754Z,100226.33
2018-05-12T10:26:50.539Z,100220.37
2018-05-12T10:29:16.114Z,100219.15
2018-05-12T10:31:41.666Z,100209.72
2018-05-12T10:34:07.553Z,100205.33
2018-05-12T10:36:33.539Z,100214.87
2018-05-12T10:38:59.255Z,100210.53
2018-05-12T10:41:24.818Z,100200.66
2018-05-12T10:43:50.600Z,100205.78
2018-05-12T10:46:16.471Z,100203.61
2018-05-12T10:48:42.061Z,100188.47
2018-05-12T10:51:07.870Z,100188.09
2018-05-12T10:53:33.437Z,100198.38
2018-05-12T10:55:59.094Z,100181.09
2018-05-12T10:58:24.899Z,100165.23
2018-05-12T11:00:50.512Z,100163.44
2018-05-12T11:03:16.088Z,100161.62
2018-05-12T11:05:41.889Z,100160.19
2018-05-12T11:08:07.460Z,100151.82
2018-05-12T11:10:33.022Z,100144.23
2018-05-12T11:12:59.518Z,100137.94
2018-05-12T11:15:25.074Z,100136.16
2018-05-12T11:17:50.636Z,100134.25
2018-05-12T11:20:16.457Z,100123.13
2018-05-12T11:22:42.041Z,100126.95
2018-05-12T11:25:07.601Z,100120.58
2018-05-12T11:27:33.455Z,100114.45
2018-05-12T11:29:59.119Z,100109.16
2018-05-12T11:32:25.316Z,100099.20
2018-05-12T11:34:50.959Z,100095.84
2018-05-12T11:37:16.593Z,100097.13
2018-05-12T11:39:42.665Z,100093.73
2018-05-12T11:42:08.256Z,100085.33
2018-05-12T11:44:33.929Z,100086.36
2018-05-12T11:46:59.640Z,100083.18
2018-05-12T11:49:25.288Z,100077.64
2018-05-12T11:51:51.009Z,100071.75
2018-05-12T11:54:16.826Z,100064.63
2018-05-12T11:56:42.632Z,100060.32
2018-05-12T11:59:08.186Z,100056.55
2018-05-12T12:01:33.835Z,100060.33
2018-05-12T12:03:59.754Z,100051.80
2018-05-12T12:06:25.450Z,100052.30
2018-05-12T12:08:51.076Z,100038.70
2018-05-12T12:11:17.070Z,100044.03
2018-05-12T12:13:42.836Z,100037.67
2018-05-12T12:16:08.459Z,100046.57
2018-05-12T12:18:34.143Z,100035.39
2018-05-12T12:20:59.991Z,100029.16
2018-05-12T12:23:25.579Z,100029.78
2018-05-12T12:25:51.378Z,100021.80
2018-05-12T12:28:17.005Z,100017.45
2018-05-12T12:30:42.797Z,100016.50
2018-05-12T12:33:08.562Z,100019.45
2018-05-12T12:35:34.125Z,100014.67
2018-05-12T12:37:59.793Z,100010.08
2018-05-12T12:40:25.668Z,100008.48
2018-05-12T12:42:51.269Z,100001.52
2018-05-12T12:45:17.074Z,100001.18
2018-05-12T12:47:42.792Z,99999.13
2018-05-12T12:50:08.563Z,99993.34
2018-05-12T12:52:34.147Z,99994.03
2018-05-12T12:55:00.204Z,99985.52
2018-05-12T12:57:26.010Z,99979.73
2018-05-12T12:59:51.793Z,99982.33
2018-05-12T13:02:17.691Z,99981.84
2018-05-12T13:07:21.464Z,99973.06
2018-05-12T13:09:47.071Z,99964.45
2018-05-12T13:12:12.740Z,99964.44
2018-05-12T13:14:38.261Z,99956.34
2018-05-12T13:17:03.839Z,99958.25
2018-05-12T13:19:29.670Z,99959.12
2018-05-12T13:21:55.432Z,99942.63
2018-05-12T13:24:20.991Z,99943.31
2018-05-12T13:26:46.562Z,99942.48
2018-05-12T13:29:12.327Z,99933.66
2018-05-12T13:31:38.037Z,99931.00
2018-05-12T13:34:03.682Z,99917.52
2018-05-12T13:36:29.464Z,99919.52
2018-05-12T13:38:55.300Z,99916.77
2018-05-12T13:41:20.885Z,99910.45
2018-05-12T13:43:46.566Z,99913.14
2018-05-12T13:46:12.127Z,99904.55
2018-05-12T13:48:37.709Z,99901.68
2018-05-12T13:51:03.470Z,99897.45
2018-05-12T13:53:29.039Z,99897.97
2018-05-12T13:55:54.823Z,99885.67
2018-05-12T13:58:20.593Z,99882.67
2018-05-12T14:00:46.164Z,99885.55
2018-05-12T14:03:11.681Z,99883.88
2018-05-12T14:05:37.486Z,99875.27
2018-05-12T14:08:03.029Z,99873.83
2018-05-12T14:10:28.629Z,99881.52
2018-05-12T14:12:54.719Z,99877.38
2018-05-12T14:15:20.242Z,99867.22
2018-05-12T14:17:45.818Z,99870.84
2018-05-12T14:20:11.944Z,99857.33
2018-05-12T14:22:37.475Z,99859.36
2018-05-12T14:25:02.992Z,99853.94
2018-05-12T14:27:28.767Z,99846.09
2018-05-12T14:29:54.266Z,99853.48
2018-05-12T14:32:19.791Z,99848.36
2018-05-12T14:34:45.480Z,99836.58
2018-05-12T14:37:10.997Z,99841.87
2018-05-12T14:39:36.520Z,99828.03
2018-05-12T14:42:02.319Z,99836.12
2018-05-12T14:44:28.054Z,99836.28
2018-05-12T14:46:53.562Z,99824.78
2018-05-12T14:49:19.391Z,99827.61
2018-05-12T14:51:44.910Z,99826.39
2018-05-12T14:54:10.698Z,99820.34
2018-05-12T14:56:36.784Z,99817.41
2018-05-12T14:59:02.341Z,99820.63
2018-05-12T15:01:27.929Z,99817.50
2018-05-12T15:03:53.792Z,99817.72
2018-05-12T15:06:19.315Z,99810.34
2018-05-12T15:08:44.840Z,99810.30
2018-05-12T15:11:10.539Z,99805.42
2018-05-12T15:13:36.283Z,99814.70
2018-05-12T15:16:01.802Z,99817.17
2018-05-12T15:18:27.710Z,99818.47
2018-05-12T15:20:53.216Z,99809.75
2018-05-12T15:23:19.042Z,99804.47
2018-05-12T15:25:45.700Z,99798.09
2018-05-12T15:28:11.311Z,99790.80
2018-05-12T15:30:37.106Z,99785.66
2018-05-12T15:33:02.712Z,99788.11
2018-05-12T15:35:28.245Z,99790.71
2018-05-12T15:37:54.292Z,99778.88
2018-05-12T15:40:19.814Z,99778.64
2018-05-12T15:42:45.329Z,99780.14
2018-05-12T15:45:11.100Z,99774.22
2018-05-12T15:47:36.677Z,99769.33
2018-05-12T15:50:02.333Z,99769.67
2018-05-12T15:52:28.041Z,99768.98
2018-05-12T15:54:53.575Z,99763.79
2018-05-12T15:57:19.205Z,99764.09
2018-05-12T15:59:44.963Z,99772.91
2018-05-12T16:02:10.489Z,99771.70
2018-05-12T16:04:36.180Z,99776.60
2018-05-12T16:07:01.912Z,99773.25
2018-05-12T16:09:27.689Z,99778.03
2018-05-12T16:11:53.195Z,99774.04
2018-05-12T16:14:18.913Z,99776.26
2018-05-12T16:16:44.485Z,99790.77
2018-05-12T16:19:09.996Z,99788.84
2018-05-12T16:21:36.091Z,99804.44
2018-05-12T16:24:01.615Z,99798.96
2018-05-12T16:26:27.157Z,99798.53
2018-05-12T16:28:52.844Z,99796.57
2018-05-12T16:31:18.391Z,99793.39
2018-05-12T16:33:43.881Z,99775.82
2018-05-12T16:36:09.598Z,99768.36
2018-05-12T16:38:35.492Z,99779.12
2018-05-12T16:41:01.068Z,99786.61
2018-05-12T16:43:26.793Z,99762.38
2018-05-12T16:45:52.327Z,99771.66
2018-05-12T16:48:18.171Z,99773.02
2018-05-12T16:50:43.891Z,99768.64
2018-05-12T16:53:09.426Z,99767.59
2018-05-12T16:55:34.932Z,99774.61
2018-05-12T16:58:00.554Z,99763.14
2018-05-12T17:00:26.317Z,99758.31
2018-05-12T17:02:51.883Z,99755.97
2018-05-12T17:05:17.498Z,99759.91
2018-05-12T17:07:43.210Z,99766.48
2018-05-12T17:10:08.769Z,99761.61
2018-05-12T17:12:34.584Z,99752.91
2018-05-12T17:15:00.700Z,99761.62
2018-05-12T17:17:26.241Z,99756.34
2018-05-12T17:19:51.814Z,99749.93
2018-05-12T17:22:17.583Z,99754.61
2018-05-12T17:24:43.104Z,99757.82
2018-05-12T17:27:08.737Z,99748.48
2018-05-12T17:29:34.486Z,99753.91
2018-05-12T17:32:00.577Z,99756.34
2018-05-12T17:34:26.144Z,99755.23
2018-05-12T17:36:51.710Z,99762.07
2018-05-12T17:39:17.421Z,99760.89
2018-05-12T17:41:43.132Z,99752.05
2018-05-12T17:44:08.756Z,99758.88
2018-05-12T17:46:41.287Z,99752.00
2018-05-12T17:49:06.791Z,99749.05
2018-05-12T17:51:33.233Z,99750.11
2018-05-12T17:53:58.961Z,99752.63
2018-05-12T17:56:24.741Z,99750.98
2018-05-12T17:58:50.359Z,99750.05
2018-05-12T18:01:16.443Z,99745.19
2018-05-12T18:03:45.990Z,99736.02
2018-05-12T18:06:13.579Z,99746.29
2018-05-12T18:08:40.681Z,99744.44
2018-05-12T18:11:09.007Z,99741.63
2018-05-12T18:13:36.801Z,99750.03
2018-05-12T18:16:08.479Z,99742.41
2018-05-12T18:18:35.046Z,99739.28
2018-05-12T18:21:03.116Z,99742.94
2018-05-12T18:23:35.036Z,99736.78
2018-05-12T18:26:02.349Z,99732.94
2018-05-12T18:28:35.299Z,99730.59
2018-05-12T18:31:01.493Z,99731.97
2018-05-12T18:33:29.185Z,99726.85
2018-05-12T18:35:54.834Z,99723.72
2018-05-12T18:38:20.559Z,99727.20
2018-05-12T18:40:46.125Z,99720.50
2018-05-12T18:43:11.639Z,99717.95
2018-05-12T18:45:37.712Z,99726.14
2018-05-12T18:48:03.304Z,99720.93
2018-05-12T18:50:28.923Z,99720.60
2018-05-12T18:52:55.120Z,99717.97
2018-05-12T18:55:20.636Z,99723.85
2018-05-12T18:57:46.230Z,99731.05
2018-05-12T19:00:11.921Z,99727.49
2018-05-12T19:02:37.436Z,99724.36
2018-05-12T19:05:02.964Z,99733.55
2018-05-12T19:07:29.072Z,99735.45
2018-05-12T19:09:54.696Z,99737.83
2018-05-12T19:12:20.529Z,99742.94
2018-05-12T19:14:46.382Z,99748.63
2018-05-12T19:17:11.940Z,99751.46
2018-05-12T19:19:37.491Z,99765.40
2018-05-12T19:22:03.187Z,99770.02
2018-05-12T19:24:28.716Z,99766.94
2018-05-12T19:26:54.227Z,99765.60
2018-05-12T19:29:20.308Z,99770.41
2018-05-12T19:31:45.866Z,99768.90
2018-05-12T19:34:11.458Z,99783.48
2018-05-12T19:36:37.174Z,99780.03
2018-05-12T19:39:02.737Z,99780.13
2018-05-12T19:41:28.253Z,99786.75
2018-05-12T19:43:54.002Z,99786.61
2018-05-12T19:46:19.513Z,99791.62
2018-05-12T19:48:45.036Z,99802.59
2018-05-12T19:51:10.883Z,99803.32
2018-05-12T19:53:36.452Z,99813.17
2018-05-12T19:56:02.210Z,99823.94
2018-05-12T19:58:28.028Z,99824.44
2018-05-12T20:00:53.541Z,99836.72
2018-05-12T20:03:19.121Z,99827.39
2018-05-12T20:05:44.832Z,99833.22
2018-05-12T20:08:10.355Z,99830.91
2018-05-12T20:10:35.921Z,99825.00
2018-05-12T20:13:01.685Z,99822.73
2018-05-12T20:15:27.351Z,99828.72
2018-05-12T20:17:52.853Z,99827.43
2018-05-12T20:20:18.526Z,99832.13
2018-05-12T20:22:44.080Z,99832.30
2018-05-12T20:25:09.589Z,99829.62
2018-05-12T20:27:35.648Z,99830.03
2018-05-12T20:30:01.475Z,99839.63
2018-05-12T20:32:29.976Z,99829.70
2018-05-12T20:34:55.540Z,99828.36
2018-05-12T20:37:21.389Z,99820.52
2018-05-12T20:39:46.977Z,99835.73
2018-05-12T20:42:12.627Z,99834.67
2018-05-12T20:44:38.154Z,99839.48
2018-05-12T20:47:03.873Z,99830.08
2018-05-12T20:49:29.451Z,99831.44
2018-05-12T20:51:54.983Z,99833.44
2018-05-12T20:54:20.698Z,99831.16
2018-05-12T20:56:46.225Z,99832.70
2018-05-12T20:59:11.878Z,99829.47
2018-05-12T21:01:37.678Z,99829.37
2018-05-12T21:04:03.270Z,99827.89
2018-05-12T21:06:29.127Z,99820.05
2018-05-12T21:08:54.860Z,99819.66
2018-05-12T21:11:20.680Z,99814.52
2018-05-12T21:13:46.199Z,99813.34
2018-05-12T21:16:11.716Z,99811.75
2018-05-12T21:18:37.441Z,99811.78
2018-05-12T21:21:03.014Z,99815.72
2018-05-12T21:23:28.567Z,99812.92
2018-05-12T21:25:54.240Z,99818.92
2018-05-12T21:28:19.772Z,99826.88
2018-05-12T21:30:45.340Z,99822.94
2018-05-12T21:33:11.244Z,99828.13
2018-05-12T21:35:36.834Z,99819.92
2018-05-12T21:38:02.614Z,99819.92
2018-05-12T21:40:28.362Z,99816.41
2018-05-12T21:42:53.927Z,99825.06
2018-05-12T21:45:19.524Z,99820.58
2018-05-12T21:47:45.223Z,99821.68
2018-05-12T21:50:10.748Z,99815.88
2018-05-12T21:52:36.508Z,99824.00
2018-05-12T21:55:02.091Z,99822.25
2018-05-12T21:57:30.278Z,99823.08
2018-05-12T21:59:56.076Z,99812.88
2018-05-12T22:02:21.859Z,99826.78
2018-05-12T22:04:47.383Z,99813.16
2018-05-12T22:07:12.950Z,99821.93
2018-05-12T22:09:38.681Z,99834.94
2018-05-12T22:12:04.320Z,99832.98
2018-05-12T22:14:29.941Z,99835.34
2018-05-12T22:16:55.463Z,99839.69
2018-05-12T22:19:21.498Z,99829.46
2018-05-12T22:21:47.002Z,99843.61
2018-05-12T22:24:12.569Z,99842.80
2018-05-12T22:26:38.371Z,99834.84
2018-05-12T22:29:04.105Z,99836.42
2018-05-12T22:31:29.629Z,99842.36
2018-05-12T22:33:55.184Z,99862.13
2018-05-12T22:36:21.240Z,99869.20
2018-05-12T22:38:46.748Z,99867.61
2018-05-12T22:41:12.248Z,99865.25
2018-05-12T22:43:38.102Z,99853.05
2018-05-12T22:46:03.643Z,99839.23
2018-05-12T22:48:29.164Z,99831.36
2018-05-12T22:50:54.872Z,99823.09
2018-05-12T22:53:20.394Z,99808.16
2018-05-12T22:55:45.986Z,99812.42
2018-05-12T22:58:11.660Z,99807.66
2018-05-12T23:00:37.228Z,99829.82
2018-05-12T23:03:03.035Z,99852.62
2018-05-12T23:05:28.549Z,99851.81
2018-05-12T23:07:54.314Z,99848.25
2018-05-12T23:10:19.977Z,99833.77
2018-05-12T23:12:45.549Z,99827.03
2018-05-12T23:15:11.073Z,99818.35
2018-05-12T23:17:36.777Z,99812.10
2018-05-12T23:20:02.302Z,99807.00
2018-05-12T23:22:27.848Z,99813.28
2018-05-12T23:24:53.602Z,99814.09
2018-05-12T23:27:19.102Z,99815.29
2018-05-12T23:29:44.784Z,99803.45
2018-05-12T23:32:10.581Z,99794.42
2018-05-12T23:34:36.362Z,99772.77
2018-05-12T23:37:02.138Z,99768.44
2018-05-12T23:39:27.716Z,99754.28
2018-05-12T23:41:53.438Z,99757.42
2018-05-12T23:44:19.016Z,99742.48
2018-05-12T23:46:44.530Z,99735.39
2018-05-12T23:49:10.233Z,99745.62
2018-05-12T23:51:36.011Z,99748.32
2018-05-12T23:54:01.543Z,99740.41
2018-05-12T23:56:27.399Z,99735.34
2018-05-12T23:58:52.963Z,99728.18
